THA951 VTBS-WSSS
Flight info
| Callsign | THA951 |
|---|---|
| Flight time | N/A |
| Altitude | 39000 |
| Route | BUT1F BUT Y11 PIDEL/N0480F410 Y11 PASVA Y514 NUFFA DCT PIBAP DCT PASPU |
| Aircraft | A388/J-SADE2E3FGHIJ3J4J5M1RWXY/LB1D1 |
Departure
| Time | 2026-05-07 23:10 |
|---|---|
| Airport | Suvarnabhumi Airport (VTBS) |
Arrival
| Time | N/A |
|---|---|
| Airport | Singapore Changi Airport (WSSS) |
| Time | Latitude | Longitude | Altitude | Speed | Heading |
|---|---|---|---|---|---|
| 2026-05-07 22:52 | 13.69059 | 100.74559 | 18 ft | 0 kts | 105° |
| 2026-05-07 23:01 | 13.69060 | 100.74557 | 18 ft | 2 kts | 105° |
| 2026-05-07 23:01 | 13.69065 | 100.74540 | 23 ft | 2 kts | 106° |
| 2026-05-07 23:02 | 13.69070 | 100.74524 | 23 ft | 2 kts | 109° |
| 2026-05-07 23:02 | 13.69076 | 100.74508 | 23 ft | 2 kts | 112° |
| 2026-05-07 23:02 | 13.69084 | 100.74493 | 18 ft | 2 kts | 120° |
| 2026-05-07 23:02 | 13.69091 | 100.74485 | 23 ft | 2 kts | 131° |
| 2026-05-07 23:03 | 13.69106 | 100.74478 | 23 ft | 2 kts | 171° |
| 2026-05-07 23:03 | 13.69112 | 100.74479 | 21 ft | 0 kts | 184° |
| 2026-05-07 23:04 | 13.69110 | 100.74479 | 21 ft | 2 kts | 184° |
| 2026-05-07 23:04 | 13.69091 | 100.74476 | 19 ft | 6 kts | 193° |
| 2026-05-07 23:05 | 13.69031 | 100.74460 | 20 ft | 12 kts | 194° |
| 2026-05-07 23:05 | 13.68938 | 100.74435 | 21 ft | 16 kts | 195° |
| 2026-05-07 23:05 | 13.68797 | 100.74379 | 23 ft | 14 kts | 245° |
| 2026-05-07 23:05 | 13.68803 | 100.74272 | 21 ft | 17 kts | 284° |
| 2026-05-07 23:06 | 13.68823 | 100.74186 | 22 ft | 19 kts | 283° |
| 2026-05-07 23:06 | 13.68797 | 100.74103 | 22 ft | 13 kts | 205° |
| 2026-05-07 23:06 | 13.68658 | 100.74059 | 22 ft | 18 kts | 195° |
| 2026-05-07 23:06 | 13.68527 | 100.74027 | 21 ft | 21 kts | 194° |
| 2026-05-07 23:07 | 13.68431 | 100.74002 | 23 ft | 22 kts | 195° |
| 2026-05-07 23:07 | 13.68277 | 100.73959 | 21 ft | 24 kts | 194° |
| 2026-05-07 23:07 | 13.68112 | 100.73917 | 20 ft | 25 kts | 194° |
| 2026-05-07 23:07 | 13.67939 | 100.73873 | 21 ft | 26 kts | 194° |
| 2026-05-07 23:08 | 13.67765 | 100.73827 | 20 ft | 25 kts | 195° |
| 2026-05-07 23:08 | 13.67597 | 100.73782 | 22 ft | 26 kts | 194° |
| 2026-05-07 23:08 | 13.67421 | 100.73736 | 22 ft | 26 kts | 194° |
| 2026-05-07 23:08 | 13.67241 | 100.73688 | 23 ft | 27 kts | 194° |
| 2026-05-07 23:09 | 13.67104 | 100.73572 | 22 ft | 20 kts | 282° |
| 2026-05-07 23:09 | 13.67197 | 100.73491 | 22 ft | 19 kts | 5° |
| 2026-05-07 23:09 | 13.67224 | 100.73496 | 22 ft | 0 kts | 13° |
| 2026-05-07 23:09 | 13.67397 | 100.73540 | 21 ft | 74 kts | 15° |
| 2026-05-07 23:10 | 13.68218 | 100.73754 | 22 ft | 160 kts | 13° |
| 2026-05-07 23:10 | 13.69435 | 100.74046 | 357 ft | 191 kts | 14° |
| 2026-05-07 23:10 | 13.70764 | 100.74324 | 892 ft | 200 kts | 11° |
| 2026-05-07 23:10 | 13.72178 | 100.74592 | 1428 ft | 217 kts | 11° |
| 2026-05-07 23:11 | 13.73681 | 100.74962 | 2263 ft | 227 kts | 15° |
| 2026-05-07 23:11 | 13.75276 | 100.75463 | 2742 ft | 250 kts | 17° |
| 2026-05-07 23:11 | 13.76985 | 100.75992 | 3317 ft | 266 kts | 16° |
| 2026-05-07 23:11 | 13.78791 | 100.76511 | 4159 ft | 270 kts | 15° |
| 2026-05-07 23:12 | 13.80617 | 100.77010 | 5041 ft | 273 kts | 15° |
| 2026-05-07 23:12 | 13.82462 | 100.77535 | 5880 ft | 276 kts | 22° |
| 2026-05-07 23:12 | 13.84046 | 100.78635 | 6707 ft | 277 kts | 49° |
| 2026-05-07 23:12 | 13.84991 | 100.80328 | 7492 ft | 279 kts | 73° |
| 2026-05-07 23:13 | 13.85218 | 100.82319 | 7899 ft | 282 kts | 90° |
| 2026-05-07 23:13 | 13.85159 | 100.84355 | 8003 ft | 284 kts | 92° |
| 2026-05-07 23:13 | 13.85074 | 100.86382 | 8007 ft | 283 kts | 92° |
| 2026-05-07 23:13 | 13.85009 | 100.88415 | 8007 ft | 282 kts | 91° |
| 2026-05-07 23:14 | 13.84970 | 100.90411 | 8008 ft | 282 kts | 91° |
| 2026-05-07 23:14 | 13.84945 | 100.92434 | 8008 ft | 282 kts | 90° |
| 2026-05-07 23:14 | 13.84927 | 100.94456 | 8011 ft | 282 kts | 90° |
| 2026-05-07 23:14 | 13.84824 | 100.95791 | 8001 ft | 283 kts | 102° |
| 2026-05-07 23:15 | 13.83504 | 100.98118 | 8353 ft | 288 kts | 138° |
| 2026-05-07 23:15 | 13.81794 | 100.99153 | 9175 ft | 289 kts | 153° |
| 2026-05-07 23:15 | 13.79980 | 101.00083 | 9716 ft | 293 kts | 152° |
| 2026-05-07 23:15 | 13.78162 | 101.01045 | 9904 ft | 294 kts | 151° |
| 2026-05-07 23:16 | 13.76337 | 101.02020 | 10002 ft | 295 kts | 151° |
| 2026-05-07 23:16 | 13.74511 | 101.02995 | 10010 ft | 295 kts | 151° |
| 2026-05-07 23:16 | 13.72655 | 101.03985 | 10016 ft | 312 kts | 151° |
| 2026-05-07 23:16 | 13.70671 | 101.05043 | 10015 ft | 335 kts | 152° |
| 2026-05-07 23:17 | 13.68570 | 101.06161 | 10011 ft | 340 kts | 152° |
| 2026-05-07 23:17 | 13.66465 | 101.07247 | 10011 ft | 333 kts | 156° |
| 2026-05-07 23:17 | 13.64276 | 101.07796 | 10016 ft | 316 kts | 174° |
| 2026-05-07 23:17 | 13.62154 | 101.07654 | 10014 ft | 303 kts | 191° |
| 2026-05-07 23:18 | 13.60141 | 101.07083 | 10017 ft | 304 kts | 194° |
| 2026-05-07 23:18 | 13.57987 | 101.06484 | 10019 ft | 333 kts | 193° |
| 2026-05-07 23:18 | 13.55693 | 101.05861 | 10016 ft | 345 kts | 193° |
| 2026-05-07 23:18 | 13.53402 | 101.05237 | 10075 ft | 344 kts | 193° |
| 2026-05-07 23:19 | 13.51073 | 101.04601 | 10199 ft | 348 kts | 193° |
| 2026-05-07 23:19 | 13.48717 | 101.03955 | 10858 ft | 349 kts | 193° |
| 2026-05-07 23:19 | 13.46356 | 101.03308 | 11603 ft | 351 kts | 193° |
| 2026-05-07 23:19 | 13.43978 | 101.02656 | 12294 ft | 355 kts | 194° |
| 2026-05-07 23:20 | 13.41577 | 101.01997 | 12991 ft | 358 kts | 194° |
| 2026-05-07 23:20 | 13.39158 | 101.01334 | 13689 ft | 361 kts | 194° |
| 2026-05-07 23:20 | 13.36718 | 101.00656 | 14306 ft | 365 kts | 195° |
| 2026-05-07 23:20 | 13.34509 | 100.99814 | 14886 ft | 368 kts | 203° |
| 2026-05-07 23:21 | 13.32236 | 100.98564 | 15479 ft | 373 kts | 211° |
| 2026-05-07 23:21 | 13.30084 | 100.97045 | 15775 ft | 376 kts | 213° |
| 2026-05-07 23:21 | 13.27937 | 100.95500 | 15864 ft | 377 kts | 213° |
| 2026-05-07 23:21 | 13.25783 | 100.93964 | 15873 ft | 376 kts | 213° |
| 2026-05-07 23:22 | 13.23655 | 100.92452 | 15873 ft | 376 kts | 213° |
| 2026-05-07 23:22 | 13.21503 | 100.90925 | 15872 ft | 376 kts | 213° |
| 2026-05-07 23:22 | 13.19351 | 100.89400 | 15876 ft | 376 kts | 213° |
| 2026-05-07 23:22 | 13.17190 | 100.87868 | 16018 ft | 378 kts | 213° |
| 2026-05-07 23:23 | 13.15012 | 100.86324 | 16502 ft | 380 kts | 213° |
| 2026-05-07 23:23 | 13.12857 | 100.84796 | 17185 ft | 381 kts | 213° |
| 2026-05-07 23:23 | 13.10563 | 100.83418 | 17739 ft | 382 kts | 200° |
| 2026-05-07 23:23 | 13.07984 | 100.82772 | 18309 ft | 382 kts | 183° |
| 2026-05-07 23:24 | 13.05325 | 100.82940 | 18796 ft | 383 kts | 166° |
| 2026-05-07 23:24 | 13.02845 | 100.83852 | 19254 ft | 385 kts | 155° |
| 2026-05-07 23:24 | 13.00375 | 100.84981 | 19716 ft | 388 kts | 155° |
| 2026-05-07 23:24 | 12.97887 | 100.86106 | 20189 ft | 391 kts | 155° |
| 2026-05-07 23:25 | 12.95408 | 100.87220 | 20656 ft | 394 kts | 155° |
| 2026-05-07 23:25 | 12.92871 | 100.88354 | 21114 ft | 397 kts | 155° |
| 2026-05-07 23:25 | 12.91183 | 100.89108 | 21415 ft | 399 kts | 155° |
| 2026-05-07 23:25 | 12.87782 | 100.90626 | 22021 ft | 402 kts | 155° |
| 2026-05-07 23:26 | 12.85196 | 100.91780 | 22449 ft | 406 kts | 155° |
| 2026-05-07 23:26 | 12.83471 | 100.92550 | 22729 ft | 408 kts | 155° |
| 2026-05-07 23:26 | 12.80001 | 100.94099 | 23307 ft | 412 kts | 155° |
| 2026-05-07 23:26 | 12.77357 | 100.95278 | 23683 ft | 415 kts | 155° |
| 2026-05-07 23:27 | 12.72042 | 100.97648 | 24373 ft | 420 kts | 155° |
| 2026-05-07 23:27 | 12.69335 | 100.98855 | 24719 ft | 423 kts | 155° |
| 2026-05-07 23:27 | 12.66599 | 101.00018 | 25041 ft | 427 kts | 159° |
| 2026-05-07 23:28 | 12.63777 | 101.00886 | 25368 ft | 430 kts | 164° |
| 2026-05-07 23:28 | 12.60879 | 101.01695 | 25722 ft | 433 kts | 163° |
| 2026-05-07 23:28 | 12.57967 | 101.02521 | 26065 ft | 436 kts | 163° |
| 2026-05-07 23:28 | 12.55034 | 101.03358 | 26429 ft | 438 kts | 163° |
| 2026-05-07 23:29 | 12.52070 | 101.04204 | 26790 ft | 441 kts | 163° |
| 2026-05-07 23:29 | 12.49093 | 101.05053 | 27159 ft | 444 kts | 163° |
| 2026-05-07 23:29 | 12.46134 | 101.05896 | 27540 ft | 447 kts | 163° |
| 2026-05-07 23:29 | 12.43107 | 101.06758 | 27921 ft | 451 kts | 163° |
| 2026-05-07 23:30 | 12.40101 | 101.07613 | 28318 ft | 454 kts | 163° |
| 2026-05-07 23:30 | 12.37001 | 101.08331 | 28706 ft | 458 kts | 170° |
| 2026-05-07 23:30 | 12.33810 | 101.08686 | 29113 ft | 462 kts | 176° |
| 2026-05-07 23:30 | 12.30573 | 101.08699 | 29538 ft | 466 kts | 180° |
| 2026-05-07 23:31 | 12.27348 | 101.08658 | 29960 ft | 470 kts | 180° |
| 2026-05-07 23:31 | 12.24059 | 101.08630 | 30358 ft | 473 kts | 179° |
| 2026-05-07 23:31 | 12.20742 | 101.08606 | 30768 ft | 476 kts | 179° |
| 2026-05-07 23:31 | 12.17410 | 101.08583 | 31169 ft | 480 kts | 179° |
| 2026-05-07 23:32 | 12.14050 | 101.08559 | 31582 ft | 483 kts | 179° |
| 2026-05-07 23:32 | 12.10664 | 101.08533 | 31983 ft | 487 kts | 179° |
| 2026-05-07 23:32 | 12.07301 | 101.08508 | 32372 ft | 491 kts | 179° |
| 2026-05-07 23:32 | 12.03870 | 101.08481 | 32777 ft | 494 kts | 179° |
| 2026-05-07 23:33 | 12.00403 | 101.08455 | 33175 ft | 498 kts | 179° |
| 2026-05-07 23:33 | 11.96917 | 101.08428 | 33577 ft | 501 kts | 179° |
| 2026-05-07 23:33 | 11.93418 | 101.08401 | 33960 ft | 505 kts | 179° |
| 2026-05-07 23:33 | 11.89902 | 101.08374 | 34357 ft | 507 kts | 179° |
| 2026-05-07 23:34 | 11.86414 | 101.08347 | 34784 ft | 508 kts | 179° |
| 2026-05-07 23:34 | 11.82879 | 101.08320 | 35354 ft | 506 kts | 179° |
| 2026-05-07 23:34 | 11.79358 | 101.08292 | 35935 ft | 503 kts | 179° |
| 2026-05-07 23:34 | 11.75868 | 101.08265 | 36527 ft | 501 kts | 179° |
| 2026-05-07 23:35 | 11.72414 | 101.08239 | 37099 ft | 499 kts | 179° |
| 2026-05-07 23:35 | 11.68946 | 101.08212 | 37655 ft | 497 kts | 179° |
| 2026-05-07 23:35 | 11.65535 | 101.08232 | 38202 ft | 494 kts | 176° |
| 2026-05-07 23:35 | 11.62108 | 101.08555 | 38702 ft | 492 kts | 171° |
| 2026-05-07 23:36 | 11.58714 | 101.09165 | 38845 ft | 495 kts | 168° |
| 2026-05-07 23:36 | 11.55341 | 101.09807 | 38854 ft | 491 kts | 168° |
| 2026-05-07 23:36 | 11.48622 | 101.11063 | 38853 ft | 494 kts | 168° |
| 2026-05-07 23:37 | 11.41848 | 101.12320 | 38852 ft | 493 kts | 168° |
| 2026-05-07 23:37 | 11.35113 | 101.13570 | 38850 ft | 493 kts | 168° |
| 2026-05-07 23:38 | 11.28340 | 101.14827 | 38850 ft | 493 kts | 168° |
| 2026-05-07 23:38 | 11.21604 | 101.16076 | 38848 ft | 493 kts | 168° |
| 2026-05-07 23:39 | 11.14880 | 101.17322 | 38849 ft | 492 kts | 168° |
| 2026-05-07 23:39 | 11.08137 | 101.18571 | 38849 ft | 492 kts | 168° |
| 2026-05-07 23:40 | 11.01383 | 101.19822 | 38849 ft | 492 kts | 168° |
| 2026-05-07 23:40 | 10.94684 | 101.21042 | 38852 ft | 492 kts | 169° |
| 2026-05-07 23:41 | 10.87935 | 101.22273 | 38848 ft | 491 kts | 168° |
| 2026-05-07 23:41 | 10.82342 | 101.23334 | 38848 ft | 491 kts | 168° |
| 2026-05-07 23:42 | 10.74504 | 101.24794 | 38848 ft | 491 kts | 168° |
| 2026-05-07 23:42 | 10.67763 | 101.26040 | 38845 ft | 491 kts | 168° |
| 2026-05-07 23:43 | 10.61065 | 101.27277 | 38846 ft | 491 kts | 168° |
| 2026-05-07 23:43 | 10.54326 | 101.28520 | 38842 ft | 491 kts | 168° |
| 2026-05-07 23:44 | 10.47592 | 101.29763 | 38840 ft | 492 kts | 168° |
| 2026-05-07 23:44 | 10.40876 | 101.31002 | 38838 ft | 493 kts | 168° |
| 2026-05-07 23:45 | 10.35248 | 101.32039 | 38839 ft | 493 kts | 168° |
| 2026-05-07 23:45 | 10.27350 | 101.33503 | 38845 ft | 495 kts | 168° |
| 2026-05-07 23:46 | 10.20561 | 101.34761 | 38850 ft | 496 kts | 168° |
| 2026-05-07 23:46 | 10.13753 | 101.36022 | 38854 ft | 497 kts | 168° |
| 2026-05-07 23:47 | 10.08079 | 101.37072 | 38854 ft | 497 kts | 168° |
| 2026-05-07 23:47 | 10.00176 | 101.38534 | 38851 ft | 498 kts | 168° |
| 2026-05-07 23:48 | 9.94461 | 101.39591 | 38852 ft | 498 kts | 168° |
| 2026-05-07 23:48 | 9.87646 | 101.40850 | 38852 ft | 499 kts | 168° |
| 2026-05-07 23:49 | 9.80868 | 101.42103 | 38856 ft | 499 kts | 168° |
| 2026-05-07 23:49 | 9.72873 | 101.43579 | 38853 ft | 499 kts | 168° |
| 2026-05-07 23:50 | 9.66075 | 101.44834 | 38853 ft | 499 kts | 168° |
| 2026-05-07 23:50 | 9.59236 | 101.46096 | 38853 ft | 499 kts | 168° |
| 2026-05-07 23:51 | 9.52430 | 101.47351 | 38847 ft | 499 kts | 168° |